Pagrindinis puslapis
METAR-TAF:

METAR-TAF

Oro uostai :

Kuveitas, Kuveitas

platuma: 29-13N, ilguma: 047-59E, Aukštis: 55 m

Dabartinis oras

Ataskaita buvo paskelbta 35 minutes, ne 06:00 UTC
Vėjas 8 kt iš Šiaurės
Temperatūra 43°C
Drėgmė 12%
Slėgis 1001 hPa
Matomumas: 8000 m

METAR: OKKK 190600Z 36008KT 8000 NSC 43/07 Q1001 NOSIG

Laikas: 09:35 (06:35 UTC)

Prognozė

Ataskaita buvo paskelbta 1 valandą ir 35 minutes, ne 05:00 UTC
Prognozė galioja nuo 19 metu 06 UTC su 20 metu 12 UTC
Vėjas 10 kt iš Šiaurės su gūsio iki 20 kt
Matomumas: 7000 m
Laikinai
nuo 19 metu 06 UTC su 19 metu 12 UTC
Matomumas: 4000 m
Dulkes pustymas,

TAF: OKKK 190500Z 1906/2012 35010G20KT 7000 NSC TEMPO 1906/1912 4000 BLDU

Orai ataskaitas ir orų prognozės (METAR, TAF).

turimą stotys yra geltonos ir raudonos taškus žemėlapyje.

Perkelti pele per norėdami pamatyti stoties vardą.

Tada spustelėkite, norėdami matyti oro stebėjimo ir prognozės.

Norėdami pakeisti žemėlapį: spustelėkite ant žalios mygtukų su juodo kryžiaus žemyn,; žalią mygtuką su brūkšneliu, jei norite nutolinti; arba žalių rodyklių gretimoms žemėlapius.


METAR-TAF: